createdAt,value
2022-12-29T00:01:04.924Z,99987.31
2022-12-29T00:03:34.078Z,99980.41
2022-12-29T00:06:03.725Z,99976.72
2022-12-29T00:08:41.672Z,99975.69
2022-12-29T00:11:11.220Z,99957.25
2022-12-29T00:13:57.912Z,99957.72
2022-12-29T00:16:27.097Z,99940.75
2022-12-29T00:18:56.980Z,99945.22
2022-12-29T00:22:04.011Z,99928.56
2022-12-29T00:25:44.704Z,99928.38
2022-12-29T00:28:35.313Z,99926.59
2022-12-29T00:31:22.199Z,99921.22
2022-12-29T00:34:08.082Z,99920.31
2022-12-29T00:36:40.186Z,99913.38
2022-12-29T00:39:32.225Z,99899.91
2022-12-29T00:42:35.873Z,99896.69
2022-12-29T00:45:07.285Z,99892.44
2022-12-29T00:47:36.242Z,99891.06
2022-12-29T00:50:03.779Z,99894.75
2022-12-29T00:52:32.121Z,99868.78
2022-12-29T00:55:01.318Z,99871.25
2022-12-29T00:57:29.560Z,99859.53
2022-12-29T00:59:59.417Z,99863.69
2022-12-29T01:02:30.810Z,99858.91
2022-12-29T01:04:59.586Z,99856.09
2022-12-29T01:07:28.351Z,99848.94
2022-12-29T01:10:10.988Z,99853.44
2022-12-29T01:12:46.254Z,99846.63
2022-12-29T01:15:18.361Z,99844.41
2022-12-29T01:17:48.806Z,99831.25
2022-12-29T01:20:18.449Z,99836.28
2022-12-29T01:22:48.241Z,99843.44
2022-12-29T01:25:18.593Z,99835.38
2022-12-29T01:27:47.255Z,99836.97
2022-12-29T01:30:16.047Z,99826.25
2022-12-29T01:32:50.080Z,99835.13
2022-12-29T01:35:18.719Z,99839.53
2022-12-29T01:37:47.605Z,99840.25
2022-12-29T01:40:18.087Z,99845.88
2022-12-29T01:42:48.906Z,99843.81
2022-12-29T01:45:21.133Z,99836.97
2022-12-29T01:47:57.702Z,99836.00
2022-12-29T01:50:33.505Z,99834.72
2022-12-29T01:53:07.151Z,99854.53
2022-12-29T01:55:43.445Z,99854.88
2022-12-29T01:58:17.331Z,99834.03
2022-12-29T02:00:48.920Z,99853.31
2022-12-29T02:03:23.701Z,99854.91
2022-12-29T02:05:59.996Z,99855.00
2022-12-29T02:08:31.987Z,99826.69
2022-12-29T02:11:03.318Z,99830.41
2022-12-29T02:13:32.264Z,99838.56
2022-12-29T02:16:35.424Z,99838.31
2022-12-29T02:19:49.954Z,99842.59
2022-12-29T02:22:31.184Z,99832.03
2022-12-29T02:25:36.168Z,99854.16
2022-12-29T02:28:46.791Z,99852.22
2022-12-29T02:32:10.645Z,99852.84
2022-12-29T02:35:08.359Z,99841.13
2022-12-29T02:37:50.760Z,99845.44
2022-12-29T02:40:37.621Z,99848.34
2022-12-29T02:43:16.131Z,99844.13
2022-12-29T02:45:56.385Z,99855.72
2022-12-29T02:48:33.079Z,99834.66
2022-12-29T02:51:05.945Z,99832.69
2022-12-29T02:53:55.322Z,99841.47
2022-12-29T02:56:25.023Z,99833.19
2022-12-29T02:58:53.948Z,99836.03
2022-12-29T03:02:11.684Z,99843.47
2022-12-29T03:12:11.782Z,99837.28
2022-12-29T03:15:11.614Z,99836.22
2022-12-29T03:17:54.292Z,99848.09
2022-12-29T03:20:34.530Z,99858.91
2022-12-29T03:23:06.526Z,99852.97
2022-12-29T03:25:42.168Z,99852.50
2022-12-29T03:28:19.636Z,99854.22
2022-12-29T03:30:49.311Z,99862.81
2022-12-29T03:33:23.886Z,99840.13
2022-12-29T03:36:02.013Z,99844.13
2022-12-29T03:38:38.281Z,99855.13
2022-12-29T03:41:12.828Z,99850.41
2022-12-29T03:43:41.876Z,99849.34
2022-12-29T03:46:12.587Z,99846.34
2022-12-29T03:48:43.851Z,99830.06
2022-12-29T03:51:14.346Z,99839.84
2022-12-29T03:53:43.488Z,99831.00
2022-12-29T03:56:27.530Z,99820.72
2022-12-29T03:58:57.045Z,99827.69
2022-12-29T04:01:42.775Z,99840.31
2022-12-29T04:04:11.409Z,99830.75
2022-12-29T04:06:42.213Z,99850.25
2022-12-29T04:09:14.802Z,99837.69
2022-12-29T04:11:44.799Z,99838.16
2022-12-29T04:18:47.398Z,99854.19
2022-12-29T04:21:15.945Z,99851.91
2022-12-29T04:23:51.138Z,99862.34
2022-12-29T04:26:19.707Z,99843.28
2022-12-29T04:28:48.084Z,99843.34
2022-12-29T04:31:16.430Z,99838.53
2022-12-29T04:33:45.260Z,99828.81
2022-12-29T04:36:14.108Z,99836.31
2022-12-29T04:38:44.706Z,99839.53
2022-12-29T04:41:15.398Z,99847.09
2022-12-29T04:43:44.250Z,99841.47
2022-12-29T04:46:14.510Z,99844.53
2022-12-29T04:48:46.608Z,99848.28
2022-12-29T04:51:15.453Z,99856.25
2022-12-29T04:57:16.854Z,99847.03
2022-12-29T04:59:52.847Z,99842.63
2022-12-29T05:02:26.859Z,99856.81
2022-12-29T05:05:08.406Z,99846.59
2022-12-29T05:07:37.306Z,99841.00
2022-12-29T05:10:07.913Z,99847.03
2022-12-29T05:12:40.276Z,99853.78
2022-12-29T05:15:13.120Z,99848.66
2022-12-29T05:17:41.960Z,99855.59
2022-12-29T05:20:12.227Z,99858.81
2022-12-29T05:22:41.172Z,99863.75
2022-12-29T05:25:11.481Z,99866.84
2022-12-29T05:27:41.501Z,99855.03
2022-12-29T05:30:12.162Z,99867.13
2022-12-29T05:32:42.263Z,99869.34
2022-12-29T05:35:11.311Z,99879.69
2022-12-29T05:37:42.318Z,99875.13
2022-12-29T05:40:12.555Z,99874.00
2022-12-29T05:42:42.915Z,99883.16
2022-12-29T05:45:13.158Z,99895.59
2022-12-29T05:47:42.169Z,99887.28
2022-12-29T05:50:12.757Z,99899.34
2022-12-29T05:52:41.896Z,99897.06
2022-12-29T05:55:11.164Z,99901.19
2022-12-29T05:57:42.409Z,99889.47
2022-12-29T06:00:13.967Z,99886.91
2022-12-29T06:02:46.097Z,99890.13
2022-12-29T06:05:15.612Z,99889.38
2022-12-29T06:07:45.842Z,99888.59
2022-12-29T06:10:15.771Z,99896.72
2022-12-29T06:12:47.312Z,99903.19
2022-12-29T06:15:16.923Z,99912.69
2022-12-29T06:17:46.964Z,99913.78
2022-12-29T06:20:15.575Z,99926.50
2022-12-29T06:22:44.949Z,99919.25
2022-12-29T06:25:14.254Z,99923.47
2022-12-29T06:27:44.637Z,99922.06
2022-12-29T06:30:16.476Z,99914.50
2022-12-29T06:32:47.268Z,99921.16
2022-12-29T06:35:18.039Z,99921.16
2022-12-29T06:37:49.717Z,99926.69
2022-12-29T06:40:18.956Z,99934.88
2022-12-29T06:42:51.729Z,99921.59
2022-12-29T06:45:20.318Z,99928.19
2022-12-29T06:47:50.081Z,99933.47
2022-12-29T06:50:19.733Z,99934.78
2022-12-29T06:52:49.756Z,99945.25
2022-12-29T06:55:18.842Z,99938.69
2022-12-29T06:58:04.541Z,99945.66
2022-12-29T07:00:33.272Z,99947.13
2022-12-29T07:03:03.093Z,99936.84
2022-12-29T07:05:33.950Z,99938.06
2022-12-29T07:08:03.299Z,99933.59
2022-12-29T07:10:34.288Z,99920.63
2022-12-29T07:13:05.282Z,99921.16
2022-12-29T07:15:35.275Z,99927.34
2022-12-29T07:18:05.388Z,99914.41
2022-12-29T07:20:35.333Z,99928.44
2022-12-29T07:23:05.075Z,99913.44
2022-12-29T07:25:34.200Z,99919.63
2022-12-29T07:28:05.238Z,99928.88
2022-12-29T07:30:33.994Z,99926.28
2022-12-29T07:33:04.222Z,99922.03
2022-12-29T07:35:36.274Z,99930.78
2022-12-29T07:38:05.273Z,99936.16
2022-12-29T07:40:37.293Z,99931.25
2022-12-29T07:43:07.802Z,99933.78
2022-12-29T07:45:37.596Z,99929.69
2022-12-29T07:48:08.722Z,99938.38
2022-12-29T07:50:38.753Z,99938.41
2022-12-29T07:53:08.122Z,99949.63
2022-12-29T07:55:37.009Z,99948.03
2022-12-29T07:58:08.269Z,99940.44
2022-12-29T08:00:39.036Z,99947.41
2022-12-29T08:03:08.203Z,99940.63
2022-12-29T08:05:37.557Z,99946.63
2022-12-29T08:08:06.781Z,99937.22
2022-12-29T08:10:35.686Z,99938.06
2022-12-29T08:13:04.804Z,99970.63
2022-12-29T08:15:37.768Z,99964.81
2022-12-29T08:18:07.075Z,99961.75
2022-12-29T08:20:37.004Z,99977.22
2022-12-29T08:23:15.187Z,99981.53
2022-12-29T08:25:43.983Z,99971.03
2022-12-29T08:28:13.806Z,99963.13
2022-12-29T08:30:46.327Z,99954.09
2022-12-29T08:33:15.673Z,99965.91
2022-12-29T08:35:48.555Z,99965.13
2022-12-29T08:38:17.934Z,99973.06
2022-12-29T08:40:46.661Z,99969.66
2022-12-29T08:43:18.517Z,99972.53
2022-12-29T08:45:51.067Z,99972.09
2022-12-29T08:48:20.899Z,99968.25
2022-12-29T08:50:51.357Z,99975.50
2022-12-29T08:53:20.644Z,99976.19
2022-12-29T08:56:02.120Z,99964.41
2022-12-29T08:58:34.158Z,99967.81
2022-12-29T09:01:04.688Z,99967.19
2022-12-29T09:06:23.241Z,99986.84
2022-12-29T09:08:51.575Z,99998.63
2022-12-29T09:11:24.613Z,100012.88
2022-12-29T09:13:58.448Z,99996.63
2022-12-29T09:16:29.465Z,100020.78
2022-12-29T09:18:58.124Z,100026.22
2022-12-29T09:21:27.123Z,100035.81
2022-12-29T09:23:55.537Z,100045.91
2022-12-29T09:26:23.976Z,100040.78
2022-12-29T09:28:52.885Z,100047.63
2022-12-29T09:31:21.506Z,100054.00
2022-12-29T09:33:51.668Z,100046.13
2022-12-29T09:36:20.202Z,100057.63
2022-12-29T09:38:48.836Z,100073.09
2022-12-29T09:41:27.273Z,100082.84
2022-12-29T09:44:09.583Z,100076.06
2022-12-29T09:46:43.066Z,100086.09
2022-12-29T09:49:27.090Z,100084.88
2022-12-29T09:51:59.976Z,100100.00
2022-12-29T09:54:47.739Z,100109.19
2022-12-29T09:57:26.257Z,100112.69
2022-12-29T10:00:05.588Z,100116.97
2022-12-29T10:02:41.489Z,100123.44
2022-12-29T10:05:49.061Z,100114.41
2022-12-29T10:08:37.271Z,100133.03
2022-12-29T10:11:20.809Z,100135.56
2022-12-29T10:14:20.712Z,100127.06
2022-12-29T10:16:59.998Z,100147.44
2022-12-29T10:19:51.508Z,100132.22
2022-12-29T10:22:35.505Z,100141.66
2022-12-29T10:25:15.116Z,100147.59
2022-12-29T10:27:45.859Z,100143.47
2022-12-29T10:30:16.304Z,100155.53
2022-12-29T10:32:51.736Z,100167.69
2022-12-29T10:35:24.649Z,100159.66
2022-12-29T10:38:02.753Z,100170.13
2022-12-29T10:40:40.907Z,100169.66
2022-12-29T10:43:25.236Z,100179.91
2022-12-29T10:46:00.097Z,100181.31
2022-12-29T10:48:33.651Z,100182.47
2022-12-29T10:51:06.134Z,100187.03
2022-12-29T10:53:46.288Z,100191.16
2022-12-29T10:56:27.953Z,100200.94
2022-12-29T10:59:00.408Z,100208.75
2022-12-29T11:01:40.756Z,100195.03
2022-12-29T11:04:28.204Z,100207.06
2022-12-29T11:06:57.620Z,100221.09
2022-12-29T11:09:41.919Z,100215.69
2022-12-29T11:12:28.070Z,100223.69
2022-12-29T11:15:15.394Z,100210.84
2022-12-29T11:17:49.035Z,100212.56
2022-12-29T11:20:39.489Z,100228.66
2022-12-29T11:23:26.117Z,100223.44
2022-12-29T11:26:30.305Z,100222.84
2022-12-29T11:29:26.486Z,100231.31
2022-12-29T11:31:59.113Z,100237.31
2022-12-29T11:34:34.080Z,100247.19
2022-12-29T11:37:07.172Z,100244.72
2022-12-29T11:39:43.383Z,100245.13
2022-12-29T11:42:21.106Z,100271.09
2022-12-29T11:44:53.336Z,100260.28
2022-12-29T11:47:33.606Z,100280.22
2022-12-29T11:50:07.428Z,100289.03
2022-12-29T11:55:36.750Z,100290.50
2022-12-29T11:58:09.078Z,100281.38
2022-12-29T12:00:42.591Z,100281.63
2022-12-29T12:03:20.223Z,100288.34
2022-12-29T12:05:54.340Z,100285.31
2022-12-29T12:08:36.394Z,100293.06
2022-12-29T12:11:14.475Z,100284.38
2022-12-29T12:13:58.444Z,100283.75
2022-12-29T12:16:37.185Z,100279.22
2022-12-29T12:19:17.327Z,100277.53
2022-12-29T12:21:54.307Z,100292.75
2022-12-29T12:24:45.143Z,100291.69
2022-12-29T12:27:20.655Z,100294.13
2022-12-29T12:30:11.554Z,100291.13
2022-12-29T12:32:48.736Z,100287.84
2022-12-29T12:35:26.934Z,100288.47
2022-12-29T12:38:20.803Z,100290.91
2022-12-29T12:41:10.446Z,100285.44
2022-12-29T12:43:51.968Z,100291.38
2022-12-29T12:47:20.027Z,100296.09
2022-12-29T12:50:42.303Z,100305.63
2022-12-29T12:53:41.990Z,100296.84
2022-12-29T12:56:58.720Z,100307.34
2022-12-29T12:59:51.549Z,100315.53
2022-12-29T13:02:37.869Z,100329.47
2022-12-29T13:05:36.450Z,100326.28
2022-12-29T13:08:56.281Z,100315.50
2022-12-29T13:11:38.650Z,100321.50
2022-12-29T13:14:28.097Z,100325.59
2022-12-29T13:17:07.543Z,100323.09
2022-12-29T13:19:43.529Z,100326.69
2022-12-29T13:22:25.186Z,100326.03
2022-12-29T13:25:09.649Z,100346.56
2022-12-29T13:27:47.777Z,100343.22
2022-12-29T13:30:21.864Z,100346.25
2022-12-29T13:33:06.167Z,100347.66
2022-12-29T13:36:01.811Z,100355.63
2022-12-29T13:38:39.078Z,100361.94
2022-12-29T13:41:11.138Z,100365.38
2022-12-29T13:43:45.252Z,100354.72
2022-12-29T13:46:24.184Z,100348.34
2022-12-29T13:48:58.009Z,100351.75
2022-12-29T13:51:28.681Z,100353.75
2022-12-29T13:54:20.592Z,100359.00
2022-12-29T13:57:02.582Z,100357.13
2022-12-29T14:00:04.668Z,100355.78
2022-12-29T14:02:45.224Z,100352.59
2022-12-29T14:05:31.278Z,100358.84
2022-12-29T14:08:06.647Z,100354.78
2022-12-29T14:10:38.024Z,100343.19
2022-12-29T14:13:13.062Z,100348.31
2022-12-29T14:15:43.615Z,100351.41
2022-12-29T14:18:21.595Z,100341.03
2022-12-29T14:20:58.036Z,100350.44
2022-12-29T14:23:41.252Z,100344.78
2022-12-29T14:26:37.591Z,100356.69
2022-12-29T14:35:47.293Z,100367.25
2022-12-29T14:38:29.376Z,100375.03
2022-12-29T14:41:38.015Z,100375.19
2022-12-29T14:44:20.933Z,100365.09
2022-12-29T14:46:59.726Z,100358.53
2022-12-29T14:49:33.885Z,100375.84
2022-12-29T14:52:18.898Z,100367.72
2022-12-29T14:54:57.762Z,100375.19
2022-12-29T14:57:42.214Z,100381.38
2022-12-29T15:00:24.536Z,100377.88
2022-12-29T15:03:05.667Z,100376.59
2022-12-29T15:05:46.063Z,100380.22
2022-12-29T15:08:18.428Z,100386.53
2022-12-29T15:10:55.669Z,100383.84
2022-12-29T15:13:35.631Z,100385.69
2022-12-29T15:16:05.240Z,100384.06
2022-12-29T15:18:35.772Z,100384.16
2022-12-29T15:21:22.826Z,100399.25
2022-12-29T15:23:52.173Z,100387.22
2022-12-29T15:26:24.408Z,100394.69
2022-12-29T15:29:53.585Z,100399.56
2022-12-29T15:32:25.657Z,100398.69
2022-12-29T15:35:05.453Z,100399.09
2022-12-29T15:37:38.499Z,100399.28
2022-12-29T15:40:27.839Z,100405.31
2022-12-29T15:43:27.549Z,100407.22
2022-12-29T15:45:58.447Z,100414.47
2022-12-29T15:48:27.778Z,100412.09
2022-12-29T15:50:57.596Z,100424.44
2022-12-29T15:53:29.956Z,100421.66
2022-12-29T15:56:03.934Z,100423.44
2022-12-29T15:58:42.997Z,100429.56
2022-12-29T16:01:21.715Z,100428.38
2022-12-29T16:03:54.589Z,100430.31
2022-12-29T16:06:35.372Z,100434.72
2022-12-29T16:09:06.522Z,100434.81
2022-12-29T16:11:38.972Z,100433.41
2022-12-29T16:14:17.157Z,100439.88
2022-12-29T16:16:50.217Z,100446.97
2022-12-29T16:19:30.154Z,100440.69
2022-12-29T16:22:00.626Z,100445.09
2022-12-29T16:24:42.752Z,100458.97
2022-12-29T16:27:24.432Z,100456.47
2022-12-29T16:29:58.081Z,100456.09
2022-12-29T16:32:31.268Z,100471.44
2022-12-29T16:35:22.118Z,100477.63
2022-12-29T16:38:17.554Z,100475.31
2022-12-29T16:41:00.794Z,100466.75
2022-12-29T16:43:37.828Z,100471.34
2022-12-29T16:46:37.710Z,100475.78
2022-12-29T16:49:23.778Z,100482.41
2022-12-29T16:51:57.177Z,100489.31
2022-12-29T16:54:35.444Z,100489.13
2022-12-29T16:57:05.135Z,100497.19
2022-12-29T16:59:37.138Z,100500.06
2022-12-29T17:02:15.741Z,100502.50
2022-12-29T17:04:49.417Z,100516.88
2022-12-29T17:07:20.912Z,100523.13
2022-12-29T17:09:55.217Z,100512.28
2022-12-29T17:12:28.739Z,100514.00
2022-12-29T17:15:00.883Z,100528.13
2022-12-29T17:17:36.748Z,100520.41
2022-12-29T17:20:17.854Z,100524.13
2022-12-29T17:22:52.169Z,100533.03
2022-12-29T17:25:25.543Z,100527.84
2022-12-29T17:27:58.033Z,100541.38
2022-12-29T17:30:33.868Z,100541.56
2022-12-29T17:33:08.882Z,100533.66
2022-12-29T17:35:40.058Z,100547.25
2022-12-29T17:38:23.908Z,100557.66
2022-12-29T17:40:54.607Z,100568.66
2022-12-29T17:43:24.223Z,100563.59
2022-12-29T17:45:57.823Z,100569.44
2022-12-29T17:48:27.528Z,100561.09
2022-12-29T17:50:59.939Z,100558.66
2022-12-29T17:53:32.166Z,100567.63
2022-12-29T17:56:01.372Z,100563.81
2022-12-29T17:58:32.653Z,100569.13
2022-12-29T18:01:03.869Z,100572.25
2022-12-29T18:03:38.636Z,100575.75
2022-12-29T18:06:12.502Z,100570.53
2022-12-29T18:08:44.101Z,100585.00
2022-12-29T18:11:26.243Z,100588.69
2022-12-29T18:13:59.213Z,100593.47
2022-12-29T18:16:28.131Z,100593.97
2022-12-29T18:18:57.435Z,100590.69
2022-12-29T18:21:28.530Z,100583.16
2022-12-29T18:24:00.132Z,100606.69
2022-12-29T18:26:32.018Z,100600.16
2022-12-29T18:29:01.624Z,100615.41
2022-12-29T18:31:34.110Z,100606.94
2022-12-29T18:34:09.266Z,100619.22
2022-12-29T18:36:43.341Z,100629.53
2022-12-29T18:39:15.174Z,100623.50
2022-12-29T18:41:43.945Z,100623.16
2022-12-29T18:44:15.031Z,100628.00
2022-12-29T18:46:44.936Z,100634.56
2022-12-29T18:49:13.875Z,100638.13
2022-12-29T18:51:44.312Z,100637.16
2022-12-29T18:54:26.509Z,100634.28
2022-12-29T18:56:55.391Z,100634.00
2022-12-29T18:59:24.228Z,100644.16
2022-12-29T19:01:53.566Z,100640.34
2022-12-29T19:04:22.792Z,100639.63
2022-12-29T19:06:54.423Z,100642.59
2022-12-29T19:09:24.464Z,100643.09
2022-12-29T19:11:57.041Z,100642.38
2022-12-29T19:14:27.845Z,100656.66
2022-12-29T19:16:57.554Z,100646.13
2022-12-29T19:19:26.651Z,100647.94
2022-12-29T19:21:59.238Z,100652.25
2022-12-29T19:24:27.981Z,100659.44
2022-12-29T19:26:56.511Z,100660.97
2022-12-29T19:29:25.344Z,100659.63
2022-12-29T19:31:54.440Z,100656.19
2022-12-29T19:34:23.887Z,100662.16
2022-12-29T19:36:54.401Z,100660.03
2022-12-29T19:39:24.561Z,100663.00
2022-12-29T19:41:59.060Z,100672.22
2022-12-29T19:44:30.946Z,100667.81
2022-12-29T19:47:03.073Z,100679.84
2022-12-29T19:49:32.281Z,100687.59
2022-12-29T19:52:04.404Z,100680.69
2022-12-29T19:57:18.637Z,100688.84
2022-12-29T19:59:47.499Z,100684.69
2022-12-29T20:02:22.956Z,100682.72
2022-12-29T20:04:52.653Z,100694.03
2022-12-29T20:07:24.711Z,100685.84
2022-12-29T20:09:57.851Z,100687.44
2022-12-29T20:12:29.504Z,100682.19
2022-12-29T20:14:58.767Z,100684.81
2022-12-29T20:18:02.371Z,100691.97
2022-12-29T20:20:19.472Z,100696.25
2022-12-29T20:22:49.707Z,100694.81
2022-12-29T20:25:44.315Z,100688.31
2022-12-29T20:28:09.820Z,100698.88
2022-12-29T20:30:39.584Z,100696.53
2022-12-29T20:33:08.934Z,100701.88
2022-12-29T20:35:39.443Z,100707.53
2022-12-29T20:38:13.062Z,100703.81
2022-12-29T20:40:46.992Z,100703.69
2022-12-29T20:43:18.363Z,100702.00
2022-12-29T20:45:48.607Z,100700.97
2022-12-29T20:48:17.327Z,100703.28
2022-12-29T20:50:48.703Z,100709.28
2022-12-29T20:53:19.005Z,100710.47
2022-12-29T20:55:53.100Z,100716.44
2022-12-29T20:58:23.828Z,100726.88
2022-12-29T21:00:53.416Z,100719.06
2022-12-29T21:03:22.780Z,100725.19
2022-12-29T21:05:57.514Z,100743.72
2022-12-29T21:08:28.331Z,100741.22
2022-12-29T21:11:02.102Z,100728.56
2022-12-29T21:13:37.237Z,100740.81
2022-12-29T21:16:09.087Z,100747.84
2022-12-29T21:18:37.655Z,100743.81
2022-12-29T21:21:09.925Z,100747.56
2022-12-29T21:23:46.302Z,100745.13
2022-12-29T21:26:20.613Z,100743.91
2022-12-29T21:28:52.631Z,100747.81
2022-12-29T21:31:30.410Z,100740.97
2022-12-29T21:33:59.084Z,100753.94
2022-12-29T21:36:29.793Z,100757.00
2022-12-29T21:39:01.968Z,100768.75
2022-12-29T21:41:33.874Z,100763.91
2022-12-29T21:44:35.308Z,100774.84
2022-12-29T21:47:05.709Z,100777.16
2022-12-29T21:49:34.594Z,100775.56
2022-12-29T21:52:10.848Z,100786.38
2022-12-29T21:54:57.505Z,100789.97
2022-12-29T21:57:45.514Z,100794.81
2022-12-29T22:00:34.961Z,100798.50
2022-12-29T22:03:23.952Z,100810.34
2022-12-29T22:06:12.287Z,100802.59
2022-12-29T22:09:00.675Z,100817.25
2022-12-29T22:11:47.207Z,100824.28
2022-12-29T22:14:17.995Z,100818.34
2022-12-29T22:16:47.877Z,100837.88
2022-12-29T22:19:18.289Z,100845.06
2022-12-29T22:21:47.004Z,100849.97
2022-12-29T22:24:17.187Z,100857.03
2022-12-29T22:26:47.738Z,100861.53
2022-12-29T22:29:19.917Z,100863.00
2022-12-29T22:31:49.314Z,100865.97
2022-12-29T22:34:20.467Z,100863.88
2022-12-29T22:36:50.084Z,100884.09
2022-12-29T22:39:19.478Z,100875.94
2022-12-29T22:41:48.435Z,100878.44
2022-12-29T22:44:19.868Z,100881.81
2022-12-29T22:46:50.177Z,100892.00
2022-12-29T22:49:21.352Z,100895.66
2022-12-29T22:51:51.142Z,100896.81
2022-12-29T22:54:20.613Z,100897.66
2022-12-29T22:56:50.131Z,100893.88
2022-12-29T22:59:21.576Z,100899.41
2022-12-29T23:01:51.831Z,100908.13
2022-12-29T23:05:01.450Z,100903.91
2022-12-29T23:07:12.543Z,100925.09
2022-12-29T23:09:42.401Z,100920.94
2022-12-29T23:12:15.154Z,100928.81
2022-12-29T23:14:47.095Z,100924.78
2022-12-29T23:17:15.892Z,100911.09
2022-12-29T23:19:44.520Z,100923.00
2022-12-29T23:22:14.896Z,100932.50
2022-12-29T23:24:45.256Z,100922.19
2022-12-29T23:27:17.293Z,100922.63
2022-12-29T23:29:48.469Z,100924.72
2022-12-29T23:32:17.463Z,100918.81
2022-12-29T23:34:47.733Z,100921.03
2022-12-29T23:37:18.301Z,100926.38
2022-12-29T23:39:48.204Z,100940.34
2022-12-29T23:42:20.987Z,100930.59
2022-12-29T23:44:50.982Z,100938.97
2022-12-29T23:47:19.992Z,100933.28
2022-12-29T23:49:50.451Z,100933.00
2022-12-29T23:52:20.301Z,100937.66
2022-12-29T23:54:49.434Z,100935.00
2022-12-29T23:57:20.680Z,100939.66
2022-12-29T23:59:58.680Z,100944.53
